sensor_id;sensor_type;location;lat;lon;timestamp;temperature;humidity
22471;DHT22;11402;51.374;6.594;2022-07-25T00:02:14;21.20;99.90
22471;DHT22;11402;51.374;6.594;2022-07-25T00:04:40;21.10;99.90
22471;DHT22;11402;51.374;6.594;2022-07-25T00:07:06;21.30;99.90
22471;DHT22;11402;51.374;6.594;2022-07-25T00:09:32;21.20;99.90
22471;DHT22;11402;51.374;6.594;2022-07-25T00:11:58;21.10;99.90
22471;DHT22;11402;51.374;6.594;2022-07-25T00:14:24;21.00;99.90
22471;DHT22;11402;51.374;6.594;2022-07-25T00:16:49;21.00;99.90
22471;DHT22;11402;51.374;6.594;2022-07-25T00:19:15;20.90;99.90
22471;DHT22;11402;51.374;6.594;2022-07-25T00:21:41;20.90;99.90
22471;DHT22;11402;51.374;6.594;2022-07-25T00:24:06;21.00;99.90
22471;DHT22;11402;51.374;6.594;2022-07-25T00:26:32;21.00;99.90
22471;DHT22;11402;51.374;6.594;2022-07-25T00:28:57;20.90;99.90
22471;DHT22;11402;51.374;6.594;2022-07-25T00:31:23;20.90;99.90
22471;DHT22;11402;51.374;6.594;2022-07-25T00:33:49;20.90;99.90
22471;DHT22;11402;51.374;6.594;2022-07-25T00:36:14;20.80;99.90
22471;DHT22;11402;51.374;6.594;2022-07-25T00:38:40;20.70;99.90
22471;DHT22;11402;51.374;6.594;2022-07-25T00:41:05;20.60;99.90
22471;DHT22;11402;51.374;6.594;2022-07-25T00:43:31;20.70;99.90
22471;DHT22;11402;51.374;6.594;2022-07-25T00:45:57;20.50;99.90
22471;DHT22;11402;51.374;6.594;2022-07-25T00:48:23;20.60;99.90
22471;DHT22;11402;51.374;6.594;2022-07-25T00:50:49;20.60;99.90
22471;DHT22;11402;51.374;6.594;2022-07-25T00:53:15;20.60;99.90
22471;DHT22;11402;51.374;6.594;2022-07-25T00:55:41;20.60;99.90
22471;DHT22;11402;51.374;6.594;2022-07-25T00:58:06;20.60;99.90
22471;DHT22;11402;51.374;6.594;2022-07-25T01:00:32;20.50;99.90
22471;DHT22;11402;51.374;6.594;2022-07-25T01:02:58;20.50;99.90
22471;DHT22;11402;51.374;6.594;2022-07-25T01:05:23;20.40;99.90
22471;DHT22;11402;51.374;6.594;2022-07-25T01:07:49;20.40;99.90
22471;DHT22;11402;51.374;6.594;2022-07-25T01:10:16;20.50;99.90
22471;DHT22;11402;51.374;6.594;2022-07-25T01:13:00;20.50;99.90
22471;DHT22;11402;51.374;6.594;2022-07-25T01:15:26;20.50;99.90
22471;DHT22;11402;51.374;6.594;2022-07-25T01:17:51;20.50;99.90
22471;DHT22;11402;51.374;6.594;2022-07-25T01:20:22;20.50;99.90
22471;DHT22;11402;51.374;6.594;2022-07-25T01:22:48;20.30;99.90
22471;DHT22;11402;51.374;6.594;2022-07-25T01:25:14;20.30;99.90
22471;DHT22;11402;51.374;6.594;2022-07-25T01:27:40;20.30;99.90
22471;DHT22;11402;51.374;6.594;2022-07-25T01:30:08;20.30;99.90
22471;DHT22;11402;51.374;6.594;2022-07-25T01:32:34;20.20;99.90
22471;DHT22;11402;51.374;6.594;2022-07-25T01:35:00;20.10;99.90
22471;DHT22;11402;51.374;6.594;2022-07-25T01:37:26;20.20;99.90
22471;DHT22;11402;51.374;6.594;2022-07-25T01:39:52;20.10;99.90
22471;DHT22;11402;51.374;6.594;2022-07-25T01:42:17;20.00;99.90
22471;DHT22;11402;51.374;6.594;2022-07-25T01:44:43;20.10;99.90
22471;DHT22;11402;51.374;6.594;2022-07-25T01:47:09;20.10;99.90
22471;DHT22;11402;51.374;6.594;2022-07-25T01:49:35;20.00;99.90
22471;DHT22;11402;51.374;6.594;2022-07-25T01:52:00;20.10;99.90
22471;DHT22;11402;51.374;6.594;2022-07-25T01:54:26;20.10;99.90
22471;DHT22;11402;51.374;6.594;2022-07-25T01:56:52;20.10;99.90
22471;DHT22;11402;51.374;6.594;2022-07-25T01:59:18;20.10;99.90
22471;DHT22;11402;51.374;6.594;2022-07-25T02:01:43;20.10;99.90
22471;DHT22;11402;51.374;6.594;2022-07-25T02:04:09;20.10;99.90
22471;DHT22;11402;51.374;6.594;2022-07-25T02:06:34;20.10;99.90
22471;DHT22;11402;51.374;6.594;2022-07-25T02:09:01;20.00;99.90
22471;DHT22;11402;51.374;6.594;2022-07-25T02:11:27;19.90;99.90
22471;DHT22;11402;51.374;6.594;2022-07-25T02:13:52;19.90;99.90
22471;DHT22;11402;51.374;6.594;2022-07-25T02:16:18;19.90;99.90
22471;DHT22;11402;51.374;6.594;2022-07-25T02:18:43;19.80;99.90
22471;DHT22;11402;51.374;6.594;2022-07-25T02:21:10;19.90;99.90
22471;DHT22;11402;51.374;6.594;2022-07-25T02:23:36;19.90;99.90
22471;DHT22;11402;51.374;6.594;2022-07-25T02:26:03;19.90;99.90
22471;DHT22;11402;51.374;6.594;2022-07-25T02:28:28;19.80;99.90
22471;DHT22;11402;51.374;6.594;2022-07-25T02:30:54;19.70;99.90
22471;DHT22;11402;51.374;6.594;2022-07-25T02:33:20;19.80;99.90
22471;DHT22;11402;51.374;6.594;2022-07-25T02:35:45;19.80;99.90
22471;DHT22;11402;51.374;6.594;2022-07-25T02:38:11;19.70;99.90
22471;DHT22;11402;51.374;6.594;2022-07-25T02:40:50;19.70;99.90
22471;DHT22;11402;51.374;6.594;2022-07-25T02:43:17;19.80;99.90
22471;DHT22;11402;51.374;6.594;2022-07-25T02:45:43;19.80;99.90
22471;DHT22;11402;51.374;6.594;2022-07-25T02:48:09;19.70;99.90
22471;DHT22;11402;51.374;6.594;2022-07-25T02:50:35;19.70;99.90
22471;DHT22;11402;51.374;6.594;2022-07-25T02:53:00;19.70;99.90
22471;DHT22;11402;51.374;6.594;2022-07-25T02:55:26;19.70;99.90
22471;DHT22;11402;51.374;6.594;2022-07-25T02:57:51;19.70;99.90
22471;DHT22;11402;51.374;6.594;2022-07-25T03:00:17;19.70;99.90
22471;DHT22;11402;51.374;6.594;2022-07-25T03:02:43;19.60;99.90
22471;DHT22;11402;51.374;6.594;2022-07-25T03:05:11;19.60;99.90
22471;DHT22;11402;51.374;6.594;2022-07-25T03:07:37;19.50;99.90
22471;DHT22;11402;51.374;6.594;2022-07-25T03:10:05;19.50;99.90
22471;DHT22;11402;51.374;6.594;2022-07-25T03:12:32;19.60;99.90
22471;DHT22;11402;51.374;6.594;2022-07-25T03:14:58;19.60;99.90
22471;DHT22;11402;51.374;6.594;2022-07-25T03:17:24;19.50;99.90
22471;DHT22;11402;51.374;6.594;2022-07-25T03:19:50;19.60;99.90
22471;DHT22;11402;51.374;6.594;2022-07-25T03:22:16;19.50;99.90
22471;DHT22;11402;51.374;6.594;2022-07-25T03:24:42;19.50;99.90
22471;DHT22;11402;51.374;6.594;2022-07-25T03:27:07;19.50;99.90
22471;DHT22;11402;51.374;6.594;2022-07-25T03:29:33;19.30;99.90
22471;DHT22;11402;51.374;6.594;2022-07-25T03:31:59;19.40;99.90
22471;DHT22;11402;51.374;6.594;2022-07-25T03:34:25;19.40;99.90
22471;DHT22;11402;51.374;6.594;2022-07-25T03:36:50;19.40;99.90
22471;DHT22;11402;51.374;6.594;2022-07-25T03:39:16;19.60;99.90
22471;DHT22;11402;51.374;6.594;2022-07-25T03:41:42;19.50;99.90
22471;DHT22;11402;51.374;6.594;2022-07-25T03:44:08;19.50;99.90
22471;DHT22;11402;51.374;6.594;2022-07-25T03:46:34;19.50;99.90
22471;DHT22;11402;51.374;6.594;2022-07-25T03:48:59;19.60;99.90
22471;DHT22;11402;51.374;6.594;2022-07-25T03:51:25;19.70;99.90
22471;DHT22;11402;51.374;6.594;2022-07-25T03:53:50;19.70;99.90
22471;DHT22;11402;51.374;6.594;2022-07-25T03:56:31;19.60;99.90
22471;DHT22;11402;51.374;6.594;2022-07-25T03:58:57;19.70;99.90
22471;DHT22;11402;51.374;6.594;2022-07-25T04:01:23;19.70;99.90
22471;DHT22;11402;51.374;6.594;2022-07-25T04:03:49;19.70;99.90
22471;DHT22;11402;51.374;6.594;2022-07-25T04:06:15;19.80;99.90
22471;DHT22;11402;51.374;6.594;2022-07-25T04:08:40;19.80;99.90
22471;DHT22;11402;51.374;6.594;2022-07-25T04:11:06;19.80;99.90
22471;DHT22;11402;51.374;6.594;2022-07-25T04:13:31;20.00;99.90
22471;DHT22;11402;51.374;6.594;2022-07-25T04:15:57;20.00;99.90
22471;DHT22;11402;51.374;6.594;2022-07-25T04:18:22;20.10;99.90
22471;DHT22;11402;51.374;6.594;2022-07-25T04:20:48;20.10;99.90
22471;DHT22;11402;51.374;6.594;2022-07-25T04:23:14;20.10;99.90
22471;DHT22;11402;51.374;6.594;2022-07-25T04:25:39;20.20;99.90
22471;DHT22;11402;51.374;6.594;2022-07-25T04:28:05;20.20;99.90
22471;DHT22;11402;51.374;6.594;2022-07-25T04:30:30;20.20;99.90
22471;DHT22;11402;51.374;6.594;2022-07-25T04:32:56;20.20;99.90
22471;DHT22;11402;51.374;6.594;2022-07-25T04:35:22;20.30;99.90
22471;DHT22;11402;51.374;6.594;2022-07-25T04:37:48;20.30;99.90
22471;DHT22;11402;51.374;6.594;2022-07-25T04:40:13;20.30;99.90
22471;DHT22;11402;51.374;6.594;2022-07-25T04:42:39;20.30;99.90
22471;DHT22;11402;51.374;6.594;2022-07-25T04:45:05;20.40;99.90
22471;DHT22;11402;51.374;6.594;2022-07-25T04:47:30;20.30;99.90
22471;DHT22;11402;51.374;6.594;2022-07-25T04:49:56;20.30;99.90
22471;DHT22;11402;51.374;6.594;2022-07-25T04:52:22;20.30;99.90
22471;DHT22;11402;51.374;6.594;2022-07-25T04:54:47;20.30;99.90
22471;DHT22;11402;51.374;6.594;2022-07-25T04:57:13;20.30;99.90
22471;DHT22;11402;51.374;6.594;2022-07-25T04:59:38;20.40;99.90
22471;DHT22;11402;51.374;6.594;2022-07-25T05:02:04;20.30;99.90
22471;DHT22;11402;51.374;6.594;2022-07-25T05:04:29;20.50;99.90
22471;DHT22;11402;51.374;6.594;2022-07-25T05:06:55;20.50;99.90
22471;DHT22;11402;51.374;6.594;2022-07-25T05:09:21;20.70;99.90
22471;DHT22;11402;51.374;6.594;2022-07-25T05:11:46;20.60;99.90
22471;DHT22;11402;51.374;6.594;2022-07-25T05:14:12;20.60;99.90
22471;DHT22;11402;51.374;6.594;2022-07-25T05:16:37;20.60;99.90
22471;DHT22;11402;51.374;6.594;2022-07-25T05:19:03;20.70;99.90
22471;DHT22;11402;51.374;6.594;2022-07-25T05:21:29;20.70;99.90
22471;DHT22;11402;51.374;6.594;2022-07-25T05:23:54;20.70;99.90
22471;DHT22;11402;51.374;6.594;2022-07-25T05:26:20;20.90;99.90
22471;DHT22;11402;51.374;6.594;2022-07-25T05:28:46;20.90;99.90
22471;DHT22;11402;51.374;6.594;2022-07-25T05:31:11;20.90;99.90
22471;DHT22;11402;51.374;6.594;2022-07-25T05:33:37;20.80;99.90
22471;DHT22;11402;51.374;6.594;2022-07-25T05:36:02;20.90;99.90
22471;DHT22;11402;51.374;6.594;2022-07-25T05:38:29;20.90;99.90
22471;DHT22;11402;51.374;6.594;2022-07-25T05:40:55;20.80;99.90
22471;DHT22;11402;51.374;6.594;2022-07-25T05:43:20;20.80;99.90
22471;DHT22;11402;51.374;6.594;2022-07-25T05:45:46;20.80;99.90
22471;DHT22;11402;51.374;6.594;2022-07-25T05:48:13;20.90;99.90
22471;DHT22;11402;51.374;6.594;2022-07-25T05:50:39;20.90;99.90
22471;DHT22;11402;51.374;6.594;2022-07-25T05:53:04;20.90;99.90
22471;DHT22;11402;51.374;6.594;2022-07-25T05:55:30;20.90;99.90
22471;DHT22;11402;51.374;6.594;2022-07-25T05:57:56;20.90;99.90
22471;DHT22;11402;51.374;6.594;2022-07-25T06:00:22;21.00;99.90
22471;DHT22;11402;51.374;6.594;2022-07-25T06:02:47;21.10;99.90
22471;DHT22;11402;51.374;6.594;2022-07-25T06:05:13;21.20;99.90
22471;DHT22;11402;51.374;6.594;2022-07-25T06:07:38;21.30;99.90
22471;DHT22;11402;51.374;6.594;2022-07-25T06:10:05;21.50;99.90
22471;DHT22;11402;51.374;6.594;2022-07-25T06:12:31;21.80;99.90
22471;DHT22;11402;51.374;6.594;2022-07-25T06:14:58;22.00;99.90
22471;DHT22;11402;51.374;6.594;2022-07-25T06:17:24;22.20;99.90
22471;DHT22;11402;51.374;6.594;2022-07-25T06:19:49;22.40;99.90
22471;DHT22;11402;51.374;6.594;2022-07-25T06:22:15;22.50;99.90
22471;DHT22;11402;51.374;6.594;2022-07-25T06:24:41;22.70;99.90
22471;DHT22;11402;51.374;6.594;2022-07-25T06:27:06;22.80;99.90
22471;DHT22;11402;51.374;6.594;2022-07-25T06:29:33;22.90;99.90
22471;DHT22;11402;51.374;6.594;2022-07-25T06:31:58;23.10;99.90
22471;DHT22;11402;51.374;6.594;2022-07-25T06:34:24;23.20;99.90
22471;DHT22;11402;51.374;6.594;2022-07-25T06:36:49;23.30;99.90
22471;DHT22;11402;51.374;6.594;2022-07-25T06:39:15;23.40;99.90
22471;DHT22;11402;51.374;6.594;2022-07-25T06:41:40;23.40;99.90
22471;DHT22;11402;51.374;6.594;2022-07-25T06:44:06;23.50;99.90
22471;DHT22;11402;51.374;6.594;2022-07-25T06:46:33;23.60;99.90
22471;DHT22;11402;51.374;6.594;2022-07-25T06:48:58;23.70;99.90
22471;DHT22;11402;51.374;6.594;2022-07-25T06:51:24;23.70;99.90
22471;DHT22;11402;51.374;6.594;2022-07-25T06:53:50;23.80;99.90
22471;DHT22;11402;51.374;6.594;2022-07-25T06:56:15;23.90;99.90
22471;DHT22;11402;51.374;6.594;2022-07-25T06:58:41;24.30;99.90
22471;DHT22;11402;51.374;6.594;2022-07-25T07:01:06;24.50;99.90
22471;DHT22;11402;51.374;6.594;2022-07-25T07:03:33;24.40;99.90
22471;DHT22;11402;51.374;6.594;2022-07-25T07:06:03;24.50;99.90
22471;DHT22;11402;51.374;6.594;2022-07-25T07:08:29;24.60;99.90
22471;DHT22;11402;51.374;6.594;2022-07-25T07:13:20;24.80;99.90
22471;DHT22;11402;51.374;6.594;2022-07-25T07:15:48;24.90;99.90
22471;DHT22;11402;51.374;6.594;2022-07-25T07:18:15;25.00;99.90
22471;DHT22;11402;51.374;6.594;2022-07-25T07:20:41;25.00;99.90
22471;DHT22;11402;51.374;6.594;2022-07-25T07:23:07;25.10;99.90
22471;DHT22;11402;51.374;6.594;2022-07-25T07:25:33;25.20;99.90
22471;DHT22;11402;51.374;6.594;2022-07-25T07:27:59;25.30;99.90
22471;DHT22;11402;51.374;6.594;2022-07-25T07:30:24;25.30;99.90
22471;DHT22;11402;51.374;6.594;2022-07-25T07:32:50;25.20;99.90
22471;DHT22;11402;51.374;6.594;2022-07-25T07:35:16;25.20;99.90
22471;DHT22;11402;51.374;6.594;2022-07-25T07:37:43;25.20;99.90
22471;DHT22;11402;51.374;6.594;2022-07-25T07:40:11;25.10;99.90
22471;DHT22;11402;51.374;6.594;2022-07-25T07:42:41;24.90;99.90
22471;DHT22;11402;51.374;6.594;2022-07-25T07:45:21;25.00;99.90
22471;DHT22;11402;51.374;6.594;2022-07-25T07:47:48;24.90;99.90
22471;DHT22;11402;51.374;6.594;2022-07-25T07:50:16;24.90;99.90
22471;DHT22;11402;51.374;6.594;2022-07-25T07:52:43;25.00;99.90
22471;DHT22;11402;51.374;6.594;2022-07-25T07:55:10;25.10;99.90
22471;DHT22;11402;51.374;6.594;2022-07-25T07:57:54;24.90;99.90
22471;DHT22;11402;51.374;6.594;2022-07-25T08:00:20;25.10;99.90
22471;DHT22;11402;51.374;6.594;2022-07-25T08:02:49;24.90;99.90
22471;DHT22;11402;51.374;6.594;2022-07-25T08:05:33;24.90;99.90
22471;DHT22;11402;51.374;6.594;2022-07-25T08:07:59;24.90;99.90
22471;DHT22;11402;51.374;6.594;2022-07-25T08:10:28;24.90;99.90
22471;DHT22;11402;51.374;6.594;2022-07-25T08:12:54;24.90;99.90
22471;DHT22;11402;51.374;6.594;2022-07-25T08:15:20;24.90;99.90
22471;DHT22;11402;51.374;6.594;2022-07-25T08:17:47;24.90;99.90
22471;DHT22;11402;51.374;6.594;2022-07-25T08:20:15;24.90;99.90
22471;DHT22;11402;51.374;6.594;2022-07-25T08:22:45;24.90;99.90
22471;DHT22;11402;51.374;6.594;2022-07-25T08:25:17;24.90;99.90
22471;DHT22;11402;51.374;6.594;2022-07-25T08:27:43;24.90;99.90
22471;DHT22;11402;51.374;6.594;2022-07-25T08:30:11;25.00;99.90
22471;DHT22;11402;51.374;6.594;2022-07-25T08:32:48;24.90;99.90
22471;DHT22;11402;51.374;6.594;2022-07-25T08:35:15;24.90;99.90
22471;DHT22;11402;51.374;6.594;2022-07-25T08:37:41;24.90;99.90
22471;DHT22;11402;51.374;6.594;2022-07-25T08:40:07;25.00;99.90
22471;DHT22;11402;51.374;6.594;2022-07-25T08:42:33;25.00;99.90
22471;DHT22;11402;51.374;6.594;2022-07-25T08:45:03;24.90;99.90
22471;DHT22;11402;51.374;6.594;2022-07-25T08:47:30;24.80;99.90
22471;DHT22;11402;51.374;6.594;2022-07-25T08:49:56;24.80;99.90
22471;DHT22;11402;51.374;6.594;2022-07-25T08:52:23;24.90;99.90
22471;DHT22;11402;51.374;6.594;2022-07-25T08:54:50;24.90;99.90
22471;DHT22;11402;51.374;6.594;2022-07-25T08:57:16;25.10;99.90
22471;DHT22;11402;51.374;6.594;2022-07-25T08:59:42;25.10;99.90
22471;DHT22;11402;51.374;6.594;2022-07-25T09:02:12;25.00;99.90
22471;DHT22;11402;51.374;6.594;2022-07-25T09:04:38;25.30;99.90
22471;DHT22;11402;51.374;6.594;2022-07-25T09:07:04;25.20;99.90
22471;DHT22;11402;51.374;6.594;2022-07-25T09:09:34;25.00;99.90
22471;DHT22;11402;51.374;6.594;2022-07-25T09:12:01;25.50;99.90
22471;DHT22;11402;51.374;6.594;2022-07-25T09:14:27;25.30;99.90
22471;DHT22;11402;51.374;6.594;2022-07-25T09:16:56;25.20;99.90
22471;DHT22;11402;51.374;6.594;2022-07-25T09:19:23;25.20;99.90
22471;DHT22;11402;51.374;6.594;2022-07-25T09:22:00;25.40;99.90
22471;DHT22;11402;51.374;6.594;2022-07-25T09:24:27;25.60;99.90
22471;DHT22;11402;51.374;6.594;2022-07-25T09:26:56;25.70;99.90
22471;DHT22;11402;51.374;6.594;2022-07-25T09:29:32;26.00;99.90
22471;DHT22;11402;51.374;6.594;2022-07-25T09:32:00;25.90;99.90
22471;DHT22;11402;51.374;6.594;2022-07-25T09:34:34;25.80;99.90
22471;DHT22;11402;51.374;6.594;2022-07-25T09:37:05;25.70;99.90
22471;DHT22;11402;51.374;6.594;2022-07-25T09:39:47;25.60;99.90
22471;DHT22;11402;51.374;6.594;2022-07-25T09:42:17;25.70;99.90
22471;DHT22;11402;51.374;6.594;2022-07-25T09:44:44;25.70;99.90
22471;DHT22;11402;51.374;6.594;2022-07-25T09:47:11;25.70;99.90
22471;DHT22;11402;51.374;6.594;2022-07-25T09:49:43;25.70;99.90
22471;DHT22;11402;51.374;6.594;2022-07-25T09:52:10;25.70;99.90
22471;DHT22;11402;51.374;6.594;2022-07-25T09:54:37;25.70;99.90
22471;DHT22;11402;51.374;6.594;2022-07-25T09:57:03;25.60;99.90
22471;DHT22;11402;51.374;6.594;2022-07-25T09:59:29;25.50;99.90
22471;DHT22;11402;51.374;6.594;2022-07-25T10:04:50;25.40;99.90
22471;DHT22;11402;51.374;6.594;2022-07-25T10:07:20;25.50;99.90
22471;DHT22;11402;51.374;6.594;2022-07-25T10:09:52;25.60;99.90
22471;DHT22;11402;51.374;6.594;2022-07-25T10:12:20;25.60;99.90
22471;DHT22;11402;51.374;6.594;2022-07-25T10:17:29;25.70;99.90
22471;DHT22;11402;51.374;6.594;2022-07-25T10:20:00;25.70;99.90
22471;DHT22;11402;51.374;6.594;2022-07-25T10:22:45;25.80;99.90
22471;DHT22;11402;51.374;6.594;2022-07-25T10:25:15;25.80;99.90
22471;DHT22;11402;51.374;6.594;2022-07-25T10:27:43;25.70;99.90
22471;DHT22;11402;51.374;6.594;2022-07-25T10:30:24;25.10;99.90
22471;DHT22;11402;51.374;6.594;2022-07-25T10:32:56;25.70;99.90
22471;DHT22;11402;51.374;6.594;2022-07-25T10:35:23;25.70;99.90
22471;DHT22;11402;51.374;6.594;2022-07-25T10:37:52;25.90;99.90
22471;DHT22;11402;51.374;6.594;2022-07-25T10:40:31;25.70;99.90
22471;DHT22;11402;51.374;6.594;2022-07-25T10:43:08;25.80;99.90
22471;DHT22;11402;51.374;6.594;2022-07-25T10:45:53;25.90;99.90
22471;DHT22;11402;51.374;6.594;2022-07-25T10:48:30;25.90;99.90
22471;DHT22;11402;51.374;6.594;2022-07-25T10:51:01;26.00;99.90
22471;DHT22;11402;51.374;6.594;2022-07-25T10:53:29;26.10;99.90
22471;DHT22;11402;51.374;6.594;2022-07-25T10:56:09;26.30;99.90
22471;DHT22;11402;51.374;6.594;2022-07-25T11:01:13;26.50;99.90
22471;DHT22;11402;51.374;6.594;2022-07-25T11:03:41;26.50;99.90
22471;DHT22;11402;51.374;6.594;2022-07-25T11:06:12;26.50;99.90
22471;DHT22;11402;51.374;6.594;2022-07-25T11:08:40;26.50;99.90
22471;DHT22;11402;51.374;6.594;2022-07-25T11:11:07;26.60;99.90
22471;DHT22;11402;51.374;6.594;2022-07-25T11:13:40;26.60;99.90
22471;DHT22;11402;51.374;6.594;2022-07-25T11:16:08;26.70;99.90
22471;DHT22;11402;51.374;6.594;2022-07-25T11:18:39;26.70;99.90
22471;DHT22;11402;51.374;6.594;2022-07-25T11:21:07;26.80;99.90
22471;DHT22;11402;51.374;6.594;2022-07-25T11:23:33;26.80;99.90
22471;DHT22;11402;51.374;6.594;2022-07-25T11:26:04;26.80;99.90
22471;DHT22;11402;51.374;6.594;2022-07-25T11:28:44;26.80;99.90
22471;DHT22;11402;51.374;6.594;2022-07-25T11:31:11;26.80;99.90
22471;DHT22;11402;51.374;6.594;2022-07-25T11:36:06;26.90;99.90
22471;DHT22;11402;51.374;6.594;2022-07-25T11:38:33;26.90;99.90
22471;DHT22;11402;51.374;6.594;2022-07-25T11:40:59;26.80;99.90
22471;DHT22;11402;51.374;6.594;2022-07-25T11:43:24;26.80;99.90
22471;DHT22;11402;51.374;6.594;2022-07-25T11:45:58;26.90;99.90
22471;DHT22;11402;51.374;6.594;2022-07-25T11:48:38;27.00;99.90
22471;DHT22;11402;51.374;6.594;2022-07-25T11:51:12;27.10;99.90
22471;DHT22;11402;51.374;6.594;2022-07-25T11:53:46;27.00;99.90
22471;DHT22;11402;51.374;6.594;2022-07-25T11:56:17;27.00;99.90
22471;DHT22;11402;51.374;6.594;2022-07-25T11:58:56;27.10;99.90
22471;DHT22;11402;51.374;6.594;2022-07-25T12:01:23;27.20;99.90
22471;DHT22;11402;51.374;6.594;2022-07-25T12:03:49;27.10;99.90
22471;DHT22;11402;51.374;6.594;2022-07-25T12:06:15;27.10;99.90
22471;DHT22;11402;51.374;6.594;2022-07-25T12:08:41;26.90;99.90
22471;DHT22;11402;51.374;6.594;2022-07-25T12:11:18;26.90;99.90
22471;DHT22;11402;51.374;6.594;2022-07-25T12:13:44;27.00;99.90
22471;DHT22;11402;51.374;6.594;2022-07-25T12:16:10;27.00;99.90
22471;DHT22;11402;51.374;6.594;2022-07-25T12:18:36;27.00;99.90
22471;DHT22;11402;51.374;6.594;2022-07-25T12:21:02;27.10;99.90
22471;DHT22;11402;51.374;6.594;2022-07-25T12:23:28;27.20;99.90
22471;DHT22;11402;51.374;6.594;2022-07-25T12:25:54;27.20;99.90
22471;DHT22;11402;51.374;6.594;2022-07-25T12:28:19;27.20;99.90
22471;DHT22;11402;51.374;6.594;2022-07-25T12:30:45;27.10;99.90
22471;DHT22;11402;51.374;6.594;2022-07-25T12:33:11;27.10;99.90
22471;DHT22;11402;51.374;6.594;2022-07-25T12:35:39;27.00;99.90
22471;DHT22;11402;51.374;6.594;2022-07-25T12:38:05;27.10;99.90
22471;DHT22;11402;51.374;6.594;2022-07-25T12:40:31;27.20;99.90
22471;DHT22;11402;51.374;6.594;2022-07-25T12:42:56;27.30;99.90
22471;DHT22;11402;51.374;6.594;2022-07-25T12:45:23;27.20;99.90
22471;DHT22;11402;51.374;6.594;2022-07-25T12:47:49;27.20;99.90
22471;DHT22;11402;51.374;6.594;2022-07-25T12:50:15;27.10;99.90
22471;DHT22;11402;51.374;6.594;2022-07-25T12:52:43;27.00;99.90
22471;DHT22;11402;51.374;6.594;2022-07-25T12:55:12;27.00;99.90
22471;DHT22;11402;51.374;6.594;2022-07-25T12:57:38;27.20;99.90
22471;DHT22;11402;51.374;6.594;2022-07-25T13:00:07;27.20;99.90
22471;DHT22;11402;51.374;6.594;2022-07-25T13:02:33;27.30;99.90
22471;DHT22;11402;51.374;6.594;2022-07-25T13:04:58;27.30;99.90
22471;DHT22;11402;51.374;6.594;2022-07-25T13:07:24;27.30;99.90
22471;DHT22;11402;51.374;6.594;2022-07-25T13:09:50;27.30;99.90
22471;DHT22;11402;51.374;6.594;2022-07-25T13:12:15;27.20;99.90
22471;DHT22;11402;51.374;6.594;2022-07-25T13:14:41;27.20;99.90
22471;DHT22;11402;51.374;6.594;2022-07-25T13:17:06;27.20;99.90
22471;DHT22;11402;51.374;6.594;2022-07-25T13:19:32;27.30;99.90
22471;DHT22;11402;51.374;6.594;2022-07-25T13:21:58;27.10;99.90
22471;DHT22;11402;51.374;6.594;2022-07-25T13:24:23;27.10;99.90
22471;DHT22;11402;51.374;6.594;2022-07-25T13:26:49;27.10;99.90
22471;DHT22;11402;51.374;6.594;2022-07-25T13:29:14;27.10;99.90
22471;DHT22;11402;51.374;6.594;2022-07-25T13:31:41;26.90;99.90
22471;DHT22;11402;51.374;6.594;2022-07-25T13:34:07;26.80;99.90
22471;DHT22;11402;51.374;6.594;2022-07-25T13:36:34;26.90;99.90
22471;DHT22;11402;51.374;6.594;2022-07-25T13:39:00;26.80;99.90
22471;DHT22;11402;51.374;6.594;2022-07-25T13:41:25;26.80;99.90
22471;DHT22;11402;51.374;6.594;2022-07-25T13:43:52;26.70;99.90
22471;DHT22;11402;51.374;6.594;2022-07-25T13:46:18;26.70;99.90
22471;DHT22;11402;51.374;6.594;2022-07-25T13:48:44;26.60;99.90
22471;DHT22;11402;51.374;6.594;2022-07-25T13:51:10;26.60;99.90
22471;DHT22;11402;51.374;6.594;2022-07-25T13:53:35;26.50;99.90
22471;DHT22;11402;51.374;6.594;2022-07-25T13:56:01;26.50;99.90
22471;DHT22;11402;51.374;6.594;2022-07-25T13:58:27;26.40;99.90
22471;DHT22;11402;51.374;6.594;2022-07-25T14:00:53;26.30;99.90
22471;DHT22;11402;51.374;6.594;2022-07-25T14:03:19;26.20;99.90
22471;DHT22;11402;51.374;6.594;2022-07-25T14:05:45;26.10;99.90
22471;DHT22;11402;51.374;6.594;2022-07-25T14:08:11;26.00;99.90
22471;DHT22;11402;51.374;6.594;2022-07-25T14:10:37;25.90;99.90
22471;DHT22;11402;51.374;6.594;2022-07-25T14:13:02;25.90;99.90
22471;DHT22;11402;51.374;6.594;2022-07-25T14:15:28;25.90;99.90
22471;DHT22;11402;51.374;6.594;2022-07-25T14:17:54;25.90;99.90
22471;DHT22;11402;51.374;6.594;2022-07-25T14:20:19;25.80;99.90
22471;DHT22;11402;51.374;6.594;2022-07-25T14:22:45;25.70;99.90
22471;DHT22;11402;51.374;6.594;2022-07-25T14:25:11;25.60;99.90
22471;DHT22;11402;51.374;6.594;2022-07-25T14:27:37;25.60;99.90
22471;DHT22;11402;51.374;6.594;2022-07-25T14:30:04;25.50;99.90
22471;DHT22;11402;51.374;6.594;2022-07-25T14:32:30;25.60;99.90
22471;DHT22;11402;51.374;6.594;2022-07-25T14:34:55;25.50;99.90
22471;DHT22;11402;51.374;6.594;2022-07-25T14:37:21;25.50;99.90
22471;DHT22;11402;51.374;6.594;2022-07-25T14:39:48;25.60;99.90
22471;DHT22;11402;51.374;6.594;2022-07-25T14:42:13;25.70;99.90
22471;DHT22;11402;51.374;6.594;2022-07-25T14:44:39;25.70;99.90
22471;DHT22;11402;51.374;6.594;2022-07-25T14:47:06;25.50;99.90
22471;DHT22;11402;51.374;6.594;2022-07-25T14:49:31;25.30;99.90
22471;DHT22;11402;51.374;6.594;2022-07-25T14:51:57;25.30;99.90
22471;DHT22;11402;51.374;6.594;2022-07-25T14:54:23;25.30;99.90
22471;DHT22;11402;51.374;6.594;2022-07-25T14:56:53;25.20;99.90
22471;DHT22;11402;51.374;6.594;2022-07-25T14:59:18;25.00;99.90
22471;DHT22;11402;51.374;6.594;2022-07-25T15:01:44;25.10;99.90
22471;DHT22;11402;51.374;6.594;2022-07-25T15:04:10;25.20;99.90
22471;DHT22;11402;51.374;6.594;2022-07-25T15:06:36;25.20;99.90
22471;DHT22;11402;51.374;6.594;2022-07-25T15:09:02;25.40;99.90
22471;DHT22;11402;51.374;6.594;2022-07-25T15:11:30;25.50;99.90
22471;DHT22;11402;51.374;6.594;2022-07-25T15:13:56;25.60;99.90
22471;DHT22;11402;51.374;6.594;2022-07-25T15:16:22;25.50;99.90
22471;DHT22;11402;51.374;6.594;2022-07-25T15:18:48;25.40;99.90
22471;DHT22;11402;51.374;6.594;2022-07-25T15:21:13;25.30;99.90
22471;DHT22;11402;51.374;6.594;2022-07-25T15:23:39;25.20;99.90
22471;DHT22;11402;51.374;6.594;2022-07-25T15:26:04;25.20;99.90
22471;DHT22;11402;51.374;6.594;2022-07-25T15:28:35;25.30;99.90
22471;DHT22;11402;51.374;6.594;2022-07-25T15:31:01;25.50;99.90
22471;DHT22;11402;51.374;6.594;2022-07-25T15:33:27;25.50;99.90
22471;DHT22;11402;51.374;6.594;2022-07-25T15:35:53;25.50;99.90
22471;DHT22;11402;51.374;6.594;2022-07-25T15:38:19;25.40;99.90
22471;DHT22;11402;51.374;6.594;2022-07-25T15:40:45;25.50;99.90
22471;DHT22;11402;51.374;6.594;2022-07-25T15:43:11;25.50;99.90